sensor_id;sensor_type;location;lat;lon;timestamp;pressure;altitude;pressure_sealevel;temperature;humidity
36630;BME280;36256;42.154;23.002;2023-02-16T00:01:19;98579.91;;;-1.02;95.76
36630;BME280;36256;42.154;23.002;2023-02-16T00:03:46;98587.47;;;-0.99;95.73
36630;BME280;36256;42.154;23.002;2023-02-16T00:06:13;98582.09;;;-0.96;97.75
36630;BME280;36256;42.154;23.002;2023-02-16T00:08:49;98582.66;;;-0.90;97.96
36630;BME280;36256;42.154;23.002;2023-02-16T00:11:27;98583.34;;;-0.93;100.00
36630;BME280;36256;42.154;23.002;2023-02-16T00:14:14;98582.09;;;-0.96;100.00
36630;BME280;36256;42.154;23.002;2023-02-16T00:16:41;98575.78;;;-0.96;100.00
36630;BME280;36256;42.154;23.002;2023-02-16T00:19:35;98581.72;;;-0.94;100.00
36630;BME280;36256;42.154;23.002;2023-02-16T00:22:03;98589.53;;;-0.96;100.00
36630;BME280;36256;42.154;23.002;2023-02-16T00:24:30;98566.84;;;-1.17;100.00
36630;BME280;36256;42.154;23.002;2023-02-16T00:26:57;98581.63;;;-0.98;99.86
36630;BME280;36256;42.154;23.002;2023-02-16T00:29:26;98585.66;;;-0.95;98.22
36630;BME280;36256;42.154;23.002;2023-02-16T00:31:54;98589.44;;;-1.00;95.99
36630;BME280;36256;42.154;23.002;2023-02-16T00:36:59;98593.00;;;-1.11;96.31
36630;BME280;36256;42.154;23.002;2023-02-16T00:39:27;98565.50;;;-1.23;96.09
36630;BME280;36256;42.154;23.002;2023-02-16T00:41:57;98582.69;;;-1.14;94.54
36630;BME280;36256;42.154;23.002;2023-02-16T00:47:01;98586.25;;;-1.26;95.26
36630;BME280;36256;42.154;23.002;2023-02-16T00:49:28;98579.84;;;-1.30;94.33
36630;BME280;36256;42.154;23.002;2023-02-16T00:51:55;98579.72;;;-1.33;94.66
36630;BME280;36256;42.154;23.002;2023-02-16T00:54:22;98584.34;;;-1.37;94.79
36630;BME280;36256;42.154;23.002;2023-02-16T00:56:48;98592.13;;;-1.39;95.97
36630;BME280;36256;42.154;23.002;2023-02-16T00:59:18;98591.53;;;-1.33;97.19
36630;BME280;36256;42.154;23.002;2023-02-16T01:01:46;98585.56;;;-1.35;97.97
36630;BME280;36256;42.154;23.002;2023-02-16T01:04:20;98580.31;;;-1.40;96.98
36630;BME280;36256;42.154;23.002;2023-02-16T01:06:48;98586.38;;;-1.46;96.59
36630;BME280;36256;42.154;23.002;2023-02-16T01:09:33;98577.44;;;-1.43;96.89
36630;BME280;36256;42.154;23.002;2023-02-16T01:12:19;98565.84;;;-1.49;96.12
36630;BME280;36256;42.154;23.002;2023-02-16T01:14:52;98565.03;;;-1.49;94.67
36630;BME280;36256;42.154;23.002;2023-02-16T01:17:19;98568.81;;;-1.54;94.57
36630;BME280;36256;42.154;23.002;2023-02-16T01:19:46;98570.44;;;-1.53;92.57
36630;BME280;36256;42.154;23.002;2023-02-16T01:22:12;98561.16;;;-1.48;93.93
36630;BME280;36256;42.154;23.002;2023-02-16T01:24:39;98560.00;;;-1.47;94.67
36630;BME280;36256;42.154;23.002;2023-02-16T01:27:09;98551.53;;;-1.54;95.59
36630;BME280;36256;42.154;23.002;2023-02-16T01:29:37;98548.63;;;-1.58;95.96
36630;BME280;36256;42.154;23.002;2023-02-16T01:32:04;98557.50;;;-1.52;96.04
36630;BME280;36256;42.154;23.002;2023-02-16T01:34:31;98553.38;;;-1.58;95.76
36630;BME280;36256;42.154;23.002;2023-02-16T01:36:57;98562.50;;;-1.67;94.82
36630;BME280;36256;42.154;23.002;2023-02-16T01:39:24;98565.97;;;-1.70;94.36
36630;BME280;36256;42.154;23.002;2023-02-16T01:42:12;98549.13;;;-1.80;94.94
36630;BME280;36256;42.154;23.002;2023-02-16T01:44:47;98556.09;;;-1.83;95.41
36630;BME280;36256;42.154;23.002;2023-02-16T01:47:29;98550.50;;;-1.86;95.45
36630;BME280;36256;42.154;23.002;2023-02-16T01:49:57;98554.13;;;-1.94;95.88
36630;BME280;36256;42.154;23.002;2023-02-16T01:52:38;98564.09;;;-2.02;95.42
36630;BME280;36256;42.154;23.002;2023-02-16T01:55:24;98553.44;;;-2.03;94.85
36630;BME280;36256;42.154;23.002;2023-02-16T02:03:32;98548.63;;;-1.94;98.21
36630;BME280;36256;42.154;23.002;2023-02-16T02:06:26;98552.44;;;-1.87;100.00
36630;BME280;36256;42.154;23.002;2023-02-16T02:09:48;98537.06;;;-1.88;99.76
36630;BME280;36256;42.154;23.002;2023-02-16T02:12:02;98547.38;;;-1.97;98.08
36630;BME280;36256;42.154;23.002;2023-02-16T02:14:36;98549.78;;;-2.07;97.37
36630;BME280;36256;42.154;23.002;2023-02-16T02:17:10;98548.72;;;-2.15;97.43
36630;BME280;36256;42.154;23.002;2023-02-16T02:28:52;98542.94;;;-2.34;98.21
36630;BME280;36256;42.154;23.002;2023-02-16T02:34:24;98546.59;;;-2.30;97.96
36630;BME280;36256;42.154;23.002;2023-02-16T02:37:09;98540.88;;;-2.37;97.45
36630;BME280;36256;42.154;23.002;2023-02-16T02:42:18;98545.44;;;-2.41;98.04
36630;BME280;36256;42.154;23.002;2023-02-16T02:45:06;98543.84;;;-2.42;98.42
36630;BME280;36256;42.154;23.002;2023-02-16T02:47:38;98534.69;;;-2.34;99.42
36630;BME280;36256;42.154;23.002;2023-02-16T02:52:50;98535.19;;;-2.20;99.24
36630;BME280;36256;42.154;23.002;2023-02-16T02:55:17;98540.00;;;-2.17;99.66
36630;BME280;36256;42.154;23.002;2023-02-16T02:58:03;98536.31;;;-2.21;100.00
36630;BME280;36256;42.154;23.002;2023-02-16T03:00:50;98540.69;;;-2.20;100.00
36630;BME280;36256;42.154;23.002;2023-02-16T03:03:25;98544.56;;;-2.21;99.05
36630;BME280;36256;42.154;23.002;2023-02-16T03:06:00;98543.44;;;-2.20;98.43
36630;BME280;36256;42.154;23.002;2023-02-16T03:08:30;98543.44;;;-2.20;98.23
36630;BME280;36256;42.154;23.002;2023-02-16T03:11:08;98542.97;;;-2.22;97.66
36630;BME280;36256;42.154;23.002;2023-02-16T03:14:04;98533.47;;;-2.24;95.94
36630;BME280;36256;42.154;23.002;2023-02-16T03:16:41;98531.72;;;-2.29;96.09
36630;BME280;36256;42.154;23.002;2023-02-16T03:19:12;98535.06;;;-2.23;96.03
36630;BME280;36256;42.154;23.002;2023-02-16T03:21:59;98533.56;;;-2.21;95.85
36630;BME280;36256;42.154;23.002;2023-02-16T03:24:45;98532.16;;;-2.39;96.47
36630;BME280;36256;42.154;23.002;2023-02-16T03:27:35;98537.22;;;-2.29;97.70
36630;BME280;36256;42.154;23.002;2023-02-16T03:30:23;98531.72;;;-2.29;96.75
36630;BME280;36256;42.154;23.002;2023-02-16T03:32:51;98527.72;;;-2.31;96.87
36630;BME280;36256;42.154;23.002;2023-02-16T03:35:19;98520.91;;;-2.46;96.69
36630;BME280;36256;42.154;23.002;2023-02-16T03:37:46;98521.59;;;-2.49;97.75
36630;BME280;36256;42.154;23.002;2023-02-16T03:40:13;98523.66;;;-2.46;97.20
36630;BME280;36256;42.154;23.002;2023-02-16T03:43:00;98522.53;;;-2.45;95.73
36630;BME280;36256;42.154;23.002;2023-02-16T03:45:27;98525.38;;;-2.54;95.68
36630;BME280;36256;42.154;23.002;2023-02-16T03:47:55;98532.91;;;-2.63;95.15
36630;BME280;36256;42.154;23.002;2023-02-16T03:50:21;98534.38;;;-2.65;94.68
36630;BME280;36256;42.154;23.002;2023-02-16T03:52:48;98535.97;;;-2.64;93.79
36630;BME280;36256;42.154;23.002;2023-02-16T03:55:15;98534.38;;;-2.65;92.23
36630;BME280;36256;42.154;23.002;2023-02-16T03:57:41;98532.97;;;-2.71;92.84
36630;BME280;36256;42.154;23.002;2023-02-16T04:00:08;98541.56;;;-2.73;93.39
36630;BME280;36256;42.154;23.002;2023-02-16T04:02:35;98536.84;;;-2.72;93.51
36630;BME280;36256;42.154;23.002;2023-02-16T04:05:02;98531.03;;;-2.71;96.17
36630;BME280;36256;42.154;23.002;2023-02-16T04:07:28;98535.19;;;-2.65;96.22
36630;BME280;36256;42.154;23.002;2023-02-16T04:09:57;98535.97;;;-2.64;95.50
36630;BME280;36256;42.154;23.002;2023-02-16T04:12:23;98530.50;;;-2.64;94.23
36630;BME280;36256;42.154;23.002;2023-02-16T04:15:08;98525.91;;;-2.60;93.52
36630;BME280;36256;42.154;23.002;2023-02-16T04:17:35;98531.53;;;-2.57;93.84
36630;BME280;36256;42.154;23.002;2023-02-16T04:20:03;98525.91;;;-2.60;93.84
36630;BME280;36256;42.154;23.002;2023-02-16T04:22:29;98518.16;;;-2.58;91.97
36630;BME280;36256;42.154;23.002;2023-02-16T04:24:56;98522.81;;;-2.59;95.20
36630;BME280;36256;42.154;23.002;2023-02-16T04:27:23;98523.63;;;-2.58;94.75
36630;BME280;36256;42.154;23.002;2023-02-16T04:29:49;98514.22;;;-2.57;93.41
36630;BME280;36256;42.154;23.002;2023-02-16T04:32:16;98524.00;;;-2.48;91.16
36630;BME280;36256;42.154;23.002;2023-02-16T04:34:42;98520.00;;;-2.50;89.86
36630;BME280;36256;42.154;23.002;2023-02-16T04:37:09;98522.47;;;-2.57;89.02
36630;BME280;36256;42.154;23.002;2023-02-16T04:39:36;98515.59;;;-2.63;89.22
36630;BME280;36256;42.154;23.002;2023-02-16T04:42:03;98518.00;;;-2.62;90.20
36630;BME280;36256;42.154;23.002;2023-02-16T04:44:29;98535.31;;;-2.49;94.85
36630;BME280;36256;42.154;23.002;2023-02-16T04:46:56;98542.78;;;-2.50;96.66
36630;BME280;36256;42.154;23.002;2023-02-16T04:49:23;98541.72;;;-2.57;95.71
36630;BME280;36256;42.154;23.002;2023-02-16T04:51:49;98542.06;;;-2.59;95.34
36630;BME280;36256;42.154;23.002;2023-02-16T04:54:16;98530.50;;;-2.64;94.02
36630;BME280;36256;42.154;23.002;2023-02-16T04:56:44;98529.41;;;-2.72;91.93
36630;BME280;36256;42.154;23.002;2023-02-16T04:59:11;98533.63;;;-2.74;90.95
36630;BME280;36256;42.154;23.002;2023-02-16T05:01:38;98533.72;;;-2.83;92.21
36630;BME280;36256;42.154;23.002;2023-02-16T05:04:06;98550.34;;;-2.79;94.15
36630;BME280;36256;42.154;23.002;2023-02-16T05:06:32;98555.38;;;-2.81;95.17
36630;BME280;36256;42.154;23.002;2023-02-16T05:08:59;98564.16;;;-2.88;95.49
36630;BME280;36256;42.154;23.002;2023-02-16T05:11:25;98566.97;;;-2.96;95.94
36630;BME280;36256;42.154;23.002;2023-02-16T05:14:19;98556.56;;;-3.11;97.84
36630;BME280;36256;42.154;23.002;2023-02-16T05:17:05;98564.94;;;-3.08;98.92
36630;BME280;36256;42.154;23.002;2023-02-16T05:19:32;98563.06;;;-2.95;99.29
36630;BME280;36256;42.154;23.002;2023-02-16T05:21:58;98559.47;;;-2.87;97.65
36630;BME280;36256;42.154;23.002;2023-02-16T05:24:25;98563.34;;;-2.88;96.18
36630;BME280;36256;42.154;23.002;2023-02-16T05:26:53;98557.66;;;-2.83;94.95
36630;BME280;36256;42.154;23.002;2023-02-16T05:29:20;98565.47;;;-2.73;94.31
36630;BME280;36256;42.154;23.002;2023-02-16T05:31:47;98562.25;;;-2.75;93.98
36630;BME280;36256;42.154;23.002;2023-02-16T05:34:14;98561.31;;;-2.79;92.84
36630;BME280;36256;42.154;23.002;2023-02-16T05:36:40;98559.47;;;-2.87;93.64
36630;BME280;36256;42.154;23.002;2023-02-16T05:39:07;98571.38;;;-2.83;93.69
36630;BME280;36256;42.154;23.002;2023-02-16T05:41:33;98567.78;;;-2.96;95.42
36630;BME280;36256;42.154;23.002;2023-02-16T05:44:02;98572.44;;;-2.96;95.79
36630;BME280;36256;42.154;23.002;2023-02-16T05:46:31;98573.84;;;-2.90;95.54
36630;BME280;36256;42.154;23.002;2023-02-16T05:48:59;98559.38;;;-2.99;95.42
36630;BME280;36256;42.154;23.002;2023-02-16T05:51:26;98578.88;;;-2.92;94.53
36630;BME280;36256;42.154;23.002;2023-02-16T05:53:53;98577.00;;;-3.00;95.95
36630;BME280;36256;42.154;23.002;2023-02-16T05:56:20;98584.31;;;-3.04;96.33
36630;BME280;36256;42.154;23.002;2023-02-16T05:58:46;98582.22;;;-3.07;97.43
36630;BME280;36256;42.154;23.002;2023-02-16T06:01:14;98591.63;;;-3.08;97.78
36630;BME280;36256;42.154;23.002;2023-02-16T06:03:41;98583.03;;;-3.07;97.13
36630;BME280;36256;42.154;23.002;2023-02-16T06:06:08;98581.81;;;-2.97;97.07
36630;BME280;36256;42.154;23.002;2023-02-16T06:08:36;98581.81;;;-2.97;96.55
36630;BME280;36256;42.154;23.002;2023-02-16T06:11:03;98580.97;;;-2.89;96.01
36630;BME280;36256;42.154;23.002;2023-02-16T06:13:32;98574.31;;;-2.88;95.74
36630;BME280;36256;42.154;23.002;2023-02-16T06:15:59;98587.19;;;-2.80;95.53
36630;BME280;36256;42.154;23.002;2023-02-16T06:18:26;98584.91;;;-2.78;95.66
36630;BME280;36256;42.154;23.002;2023-02-16T06:20:55;98591.41;;;-2.62;95.72
36630;BME280;36256;42.154;23.002;2023-02-16T06:23:22;98596.91;;;-2.29;95.67
36630;BME280;36256;42.154;23.002;2023-02-16T06:25:49;98592.06;;;-1.88;94.54
36630;BME280;36256;42.154;23.002;2023-02-16T06:28:17;98594.88;;;-1.51;92.11
36630;BME280;36256;42.154;23.002;2023-02-16T06:30:43;98592.00;;;-1.19;90.16
36630;BME280;36256;42.154;23.002;2023-02-16T06:33:10;98594.56;;;-0.74;88.01
36630;BME280;36256;42.154;23.002;2023-02-16T06:35:37;98590.75;;;-0.42;86.76
36630;BME280;36256;42.154;23.002;2023-02-16T06:38:03;98583.75;;;0.04;84.36
36630;BME280;36256;42.154;23.002;2023-02-16T06:40:30;98586.44;;;0.32;82.70
36630;BME280;36256;42.154;23.002;2023-02-16T06:42:56;98587.97;;;0.76;80.66
36630;BME280;36256;42.154;23.002;2023-02-16T06:45:23;98586.66;;;1.05;78.47
36630;BME280;36256;42.154;23.002;2023-02-16T06:47:49;98576.97;;;1.14;77.98
36630;BME280;36256;42.154;23.002;2023-02-16T06:50:16;98589.81;;;1.22;77.89
36630;BME280;36256;42.154;23.002;2023-02-16T06:52:43;98583.50;;;1.60;75.68
36630;BME280;36256;42.154;23.002;2023-02-16T06:55:09;98583.56;;;1.64;75.58
36630;BME280;36256;42.154;23.002;2023-02-16T06:57:36;98587.13;;;1.83;75.01
36630;BME280;36256;42.154;23.002;2023-02-16T07:00:04;98579.47;;;1.96;74.32
36630;BME280;36256;42.154;23.002;2023-02-16T07:02:32;98577.09;;;2.17;74.63
36630;BME280;36256;42.154;23.002;2023-02-16T07:04:59;98574.81;;;2.45;74.00
36630;BME280;36256;42.154;23.002;2023-02-16T07:07:26;98565.31;;;2.43;73.80
36630;BME280;36256;42.154;23.002;2023-02-16T07:09:52;98581.34;;;2.56;74.16
36630;BME280;36256;42.154;23.002;2023-02-16T07:12:19;98581.91;;;2.65;74.45
36630;BME280;36256;42.154;23.002;2023-02-16T07:14:46;98587.50;;;2.91;73.73
36630;BME280;36256;42.154;23.002;2023-02-16T07:17:12;98579.53;;;2.90;73.31
36630;BME280;36256;42.154;23.002;2023-02-16T07:19:39;98573.28;;;2.96;73.79
36630;BME280;36256;42.154;23.002;2023-02-16T07:22:06;98579.94;;;2.92;74.07
36630;BME280;36256;42.154;23.002;2023-02-16T07:24:33;98568.16;;;3.25;72.81
36630;BME280;36256;42.154;23.002;2023-02-16T07:26:59;98561.94;;;3.35;72.29
36630;BME280;36256;42.154;23.002;2023-02-16T07:29:26;98566.13;;;3.22;72.14
36630;BME280;36256;42.154;23.002;2023-02-16T07:31:53;98567.34;;;3.24;73.62
36630;BME280;36256;42.154;23.002;2023-02-16T07:34:22;98576.00;;;3.19;73.80
36630;BME280;36256;42.154;23.002;2023-02-16T07:36:49;98565.19;;;3.40;73.50
36630;BME280;36256;42.154;23.002;2023-02-16T07:39:15;98565.00;;;3.89;72.15
36630;BME280;36256;42.154;23.002;2023-02-16T07:41:42;98564.06;;;4.11;71.39
36630;BME280;36256;42.154;23.002;2023-02-16T07:44:09;98559.56;;;4.36;69.43
36630;BME280;36256;42.154;23.002;2023-02-16T07:46:35;98546.34;;;4.66;68.10
36630;BME280;36256;42.154;23.002;2023-02-16T07:49:02;98539.00;;;4.99;66.22
36630;BME280;36256;42.154;23.002;2023-02-16T07:51:29;98539.06;;;5.02;65.85
36630;BME280;36256;42.154;23.002;2023-02-16T07:53:58;98546.13;;;4.93;67.01
36630;BME280;36256;42.154;23.002;2023-02-16T07:56:27;98540.88;;;5.42;64.78
36630;BME280;36256;42.154;23.002;2023-02-16T07:58:56;98536.16;;;5.56;64.04
36630;BME280;36256;42.154;23.002;2023-02-16T08:01:23;98525.09;;;5.81;62.58
36630;BME280;36256;42.154;23.002;2023-02-16T08:03:50;98527.59;;;6.11;62.00
36630;BME280;36256;42.154;23.002;2023-02-16T08:06:18;98529.22;;;6.15;61.69
36630;BME280;36256;42.154;23.002;2023-02-16T08:08:45;98528.06;;;6.45;60.73
36630;BME280;36256;42.154;23.002;2023-02-16T08:11:17;98518.09;;;6.61;60.23
36630;BME280;36256;42.154;23.002;2023-02-16T08:13:44;98528.47;;;6.78;59.61
36630;BME280;36256;42.154;23.002;2023-02-16T08:16:15;98527.63;;;7.06;58.88
36630;BME280;36256;42.154;23.002;2023-02-16T08:18:42;98515.22;;;7.32;57.66
36630;BME280;36256;42.154;23.002;2023-02-16T08:21:10;98519.16;;;7.52;57.99
36630;BME280;36256;42.154;23.002;2023-02-16T08:23:44;98516.88;;;8.12;56.20
36630;BME280;36256;42.154;23.002;2023-02-16T08:26:15;98506.91;;;8.08;55.24
36630;BME280;36256;42.154;23.002;2023-02-16T08:28:44;98508.03;;;8.28;55.16
36630;BME280;36256;42.154;23.002;2023-02-16T08:31:17;98507.16;;;8.34;55.01
36630;BME280;36256;42.154;23.002;2023-02-16T08:37:25;98504.44;;;9.57;51.73
36630;BME280;36256;42.154;23.002;2023-02-16T08:39:51;98530.28;;;10.58;49.41
36630;BME280;36256;42.154;23.002;2023-02-16T08:42:19;98529.31;;;11.61;47.60
36630;BME280;36256;42.154;23.002;2023-02-16T08:44:45;98524.75;;;12.26;46.98
36630;BME280;36256;42.154;23.002;2023-02-16T08:47:12;98560.38;;;12.52;45.84
36630;BME280;36256;42.154;23.002;2023-02-16T08:49:39;98553.06;;;11.79;46.46
36630;BME280;36256;42.154;23.002;2023-02-16T08:52:05;98563.94;;;12.52;45.21
36630;BME280;36256;42.154;23.002;2023-02-16T08:54:32;98553.66;;;13.30;43.51
36630;BME280;36256;42.154;23.002;2023-02-16T08:56:59;98554.00;;;12.84;43.60
36630;BME280;36256;42.154;23.002;2023-02-16T08:59:28;98548.50;;;13.41;43.00
36630;BME280;36256;42.154;23.002;2023-02-16T09:01:56;98551.53;;;13.34;42.97
36630;BME280;36256;42.154;23.002;2023-02-16T09:04:24;98545.88;;;14.07;41.85
36630;BME280;36256;42.154;23.002;2023-02-16T09:06:52;98543.59;;;15.07;39.80
36630;BME280;36256;42.154;23.002;2023-02-16T09:09:19;98543.47;;;15.35;39.06
36630;BME280;36256;42.154;23.002;2023-02-16T09:11:46;98547.16;;;16.44;38.29
36630;BME280;36256;42.154;23.002;2023-02-16T09:14:14;98544.56;;;16.80;37.65
36630;BME280;36256;42.154;23.002;2023-02-16T09:16:42;98554.13;;;17.98;35.20
36630;BME280;36256;42.154;23.002;2023-02-16T09:19:17;98545.25;;;18.93;33.77
36630;BME280;36256;42.154;23.002;2023-02-16T09:21:45;98542.94;;;19.47;33.57
36630;BME280;36256;42.154;23.002;2023-02-16T09:24:12;98545.69;;;19.33;32.82
36630;BME280;36256;42.154;23.002;2023-02-16T09:26:39;98535.22;;;17.86;34.10
36630;BME280;36256;42.154;23.002;2023-02-16T09:29:09;98539.75;;;18.20;34.77
36630;BME280;36256;42.154;23.002;2023-02-16T09:31:38;98526.38;;;18.71;33.70
36630;BME280;36256;42.154;23.002;2023-02-16T09:34:15;98537.19;;;18.31;33.60
36630;BME280;36256;42.154;23.002;2023-02-16T09:36:42;98529.50;;;17.68;34.20
36630;BME280;36256;42.154;23.002;2023-02-16T09:39:09;98531.41;;;17.04;36.02
36630;BME280;36256;42.154;23.002;2023-02-16T09:46:39;98509.53;;;13.68;41.10
36630;BME280;36256;42.154;23.002;2023-02-16T09:49:23;98507.44;;;13.11;43.21
36630;BME280;36256;42.154;23.002;2023-02-16T09:51:59;98500.91;;;12.14;45.40
36630;BME280;36256;42.154;23.002;2023-02-16T09:55:00;98494.06;;;11.14;46.74
36630;BME280;36256;42.154;23.002;2023-02-16T10:03:04;98477.16;;;10.21;49.50
36630;BME280;36256;42.154;23.002;2023-02-16T10:05:57;98476.59;;;10.03;50.02
36630;BME280;36256;42.154;23.002;2023-02-16T10:08:31;98479.41;;;9.73;51.85
36630;BME280;36256;42.154;23.002;2023-02-16T10:11:12;98468.19;;;9.73;50.60
36630;BME280;36256;42.154;23.002;2023-02-16T10:14:04;98474.25;;;9.98;52.41
36630;BME280;36256;42.154;23.002;2023-02-16T10:16:37;98473.16;;;10.22;50.98
36630;BME280;36256;42.154;23.002;2023-02-16T10:19:17;98456.59;;;10.01;50.97
36630;BME280;36256;42.154;23.002;2023-02-16T10:21:48;98459.72;;;10.06;51.30
36630;BME280;36256;42.154;23.002;2023-02-16T10:24:16;98458.22;;;9.98;52.04
36630;BME280;36256;42.154;23.002;2023-02-16T10:26:50;98452.47;;;10.09;51.59
36630;BME280;36256;42.154;23.002;2023-02-16T10:29:21;98455.59;;;10.14;50.43
36630;BME280;36256;42.154;23.002;2023-02-16T10:47:42;98420.38;;;10.10;50.54
36630;BME280;36256;42.154;23.002;2023-02-16T10:50:30;98413.47;;;10.18;49.57
36630;BME280;36256;42.154;23.002;2023-02-16T10:53:03;98417.28;;;10.54;53.12
36630;BME280;36256;42.154;23.002;2023-02-16T10:55:32;98413.69;;;10.77;48.94
36630;BME280;36256;42.154;23.002;2023-02-16T10:58:00;98411.97;;;10.83;49.68
36630;BME280;36256;42.154;23.002;2023-02-16T11:00:47;98401.91;;;11.05;48.57
36630;BME280;36256;42.154;23.002;2023-02-16T11:03:18;98402.00;;;11.01;47.81
36630;BME280;36256;42.154;23.002;2023-02-16T11:05:48;98391.41;;;10.89;47.45
36630;BME280;36256;42.154;23.002;2023-02-16T11:08:14;98396.50;;;10.94;47.64
36630;BME280;36256;42.154;23.002;2023-02-16T11:13:29;98379.97;;;11.20;47.45
36630;BME280;36256;42.154;23.002;2023-02-16T11:16:04;98379.81;;;11.27;47.10
36630;BME280;36256;42.154;23.002;2023-02-16T11:18:47;98373.34;;;11.30;47.46
36630;BME280;36256;42.154;23.002;2023-02-16T11:21:15;98369.97;;;11.38;47.19
36630;BME280;36256;42.154;23.002;2023-02-16T11:23:42;98370.72;;;11.58;47.87
36630;BME280;36256;42.154;23.002;2023-02-16T11:28:41;98361.72;;;11.67;46.77
36630;BME280;36256;42.154;23.002;2023-02-16T11:33:36;98353.03;;;11.58;46.81
36630;BME280;36256;42.154;23.002;2023-02-16T11:36:18;98340.41;;;11.66;47.03
36630;BME280;36256;42.154;23.002;2023-02-16T11:39:02;98346.72;;;11.73;47.11
36630;BME280;36256;42.154;23.002;2023-02-16T11:41:31;98335.63;;;11.66;46.31
36630;BME280;36256;42.154;23.002;2023-02-16T11:44:00;98334.16;;;11.78;46.47
36630;BME280;36256;42.154;23.002;2023-02-16T11:46:36;98333.13;;;12.04;47.72
36630;BME280;36256;42.154;23.002;2023-02-16T11:49:20;98323.25;;;11.80;45.11
36630;BME280;36256;42.154;23.002;2023-02-16T11:51:47;98319.66;;;11.96;45.54
36630;BME280;36256;42.154;23.002;2023-02-16T11:54:19;98314.13;;;12.08;44.64
36630;BME280;36256;42.154;23.002;2023-02-16T11:57:04;98305.75;;;12.21;45.55
36630;BME280;36256;42.154;23.002;2023-02-16T11:59:35;98318.34;;;12.32;44.34
36630;BME280;36256;42.154;23.002;2023-02-16T12:05:14;98300.38;;;12.42;45.49
36630;BME280;36256;42.154;23.002;2023-02-16T12:13:03;98282.72;;;12.71;42.99
36630;BME280;36256;42.154;23.002;2023-02-16T12:24:02;98263.84;;;12.84;42.83
36630;BME280;36256;42.154;23.002;2023-02-16T12:26:51;98255.94;;;12.79;43.17
36630;BME280;36256;42.154;23.002;2023-02-16T12:37:56;98237.47;;;13.06;41.52
36630;BME280;36256;42.154;23.002;2023-02-16T12:40:40;98232.03;;;13.12;41.27
36630;BME280;36256;42.154;23.002;2023-02-16T12:46:18;98228.13;;;13.22;40.85
36630;BME280;36256;42.154;23.002;2023-02-16T12:48:58;98226.56;;;13.33;41.09
36630;BME280;36256;42.154;23.002;2023-02-16T12:51:33;98228.22;;;13.31;40.75
36630;BME280;36256;42.154;23.002;2023-02-16T12:54:14;98221.25;;;13.35;39.91
36630;BME280;36256;42.154;23.002;2023-02-16T12:56:51;98217.19;;;13.24;40.15
36630;BME280;36256;42.154;23.002;2023-02-16T12:59:24;98217.41;;;13.29;40.00
36630;BME280;36256;42.154;23.002;2023-02-16T13:01:58;98209.28;;;13.19;40.18
36630;BME280;36256;42.154;23.002;2023-02-16T13:04:36;98212.56;;;13.43;39.98
36630;BME280;36256;42.154;23.002;2023-02-16T13:07:12;98206.94;;;13.55;40.05
36630;BME280;36256;42.154;23.002;2023-02-16T13:09:56;98202.97;;;13.65;39.46
36630;BME280;36256;42.154;23.002;2023-02-16T13:12:36;98200.00;;;13.81;38.47
36630;BME280;36256;42.154;23.002;2023-02-16T13:15:17;98201.09;;;13.96;39.40
36630;BME280;36256;42.154;23.002;2023-02-16T13:17:52;98191.22;;;13.79;37.80
36630;BME280;36256;42.154;23.002;2023-02-16T13:20:22;98187.59;;;13.91;38.82
36630;BME280;36256;42.154;23.002;2023-02-16T13:34:24;98168.84;;;13.97;35.20
36630;BME280;36256;42.154;23.002;2023-02-16T13:37:25;98167.56;;;13.98;36.29
36630;BME280;36256;42.154;23.002;2023-02-16T13:40:03;98168.84;;;13.97;35.95
36630;BME280;36256;42.154;23.002;2023-02-16T13:45:24;98146.72;;;13.83;35.36
36630;BME280;36256;42.154;23.002;2023-02-16T13:47:53;98156.63;;;14.00;35.88
36630;BME280;36256;42.154;23.002;2023-02-16T13:52:47;98157.56;;;13.97;35.46
36630;BME280;36256;42.154;23.002;2023-02-16T13:55:25;98154.06;;;13.93;35.43
36630;BME280;36256;42.154;23.002;2023-02-16T14:00:47;98152.00;;;13.94;36.01
36630;BME280;36256;42.154;23.002;2023-02-16T14:05:52;98154.19;;;13.77;35.68
36630;BME280;36256;42.154;23.002;2023-02-16T14:08:25;98144.38;;;13.82;35.93
36630;BME280;36256;42.154;23.002;2023-02-16T14:13:41;98156.28;;;13.98;35.54
36630;BME280;36256;42.154;23.002;2023-02-16T14:24:04;98148.13;;;13.79;35.79
36630;BME280;36256;42.154;23.002;2023-02-16T14:26:54;98141.47;;;13.85;35.48
36630;BME280;36256;42.154;23.002;2023-02-16T14:29:43;98144.47;;;13.91;36.38
36630;BME280;36256;42.154;23.002;2023-02-16T14:37:35;98140.84;;;13.90;36.40
36630;BME280;36256;42.154;23.002;2023-02-16T14:40:14;98146.84;;;13.92;37.35
36630;BME280;36256;42.154;23.002;2023-02-16T14:42:56;98140.84;;;13.90;37.67
36630;BME280;36256;42.154;23.002;2023-02-16T14:56:53;98147.38;;;13.53;40.95
36630;BME280;36256;42.154;23.002;2023-02-16T15:02:36;98139.25;;;12.92;41.56
36630;BME280;36256;42.154;23.002;2023-02-16T15:05:26;98144.75;;;12.71;42.05
36630;BME280;36256;42.154;23.002;2023-02-16T15:08:07;98144.13;;;12.50;42.19
36630;BME280;36256;42.154;23.002;2023-02-16T15:10:37;98147.78;;;12.06;42.78
36630;BME280;36256;42.154;23.002;2023-02-16T15:13:04;98149.78;;;11.61;43.28
36630;BME280;36256;42.154;23.002;2023-02-16T15:15:49;98139.06;;;11.40;43.80
36630;BME280;36256;42.154;23.002;2023-02-16T15:18:23;98152.94;;;11.15;44.10
36630;BME280;36256;42.154;23.002;2023-02-16T15:20:53;98150.97;;;10.95;44.03
36630;BME280;36256;42.154;23.002;2023-02-16T15:23:23;98151.13;;;10.88;46.57
36630;BME280;36256;42.154;23.002;2023-02-16T15:26:05;98161.41;;;10.59;46.22
36630;BME280;36256;42.154;23.002;2023-02-16T15:28:37;98148.03;;;10.47;46.02
36630;BME280;36256;42.154;23.002;2023-02-16T15:31:15;98161.28;;;10.27;45.96
36630;BME280;36256;42.154;23.002;2023-02-16T15:33:59;98162.09;;;10.04;47.74
36630;BME280;36256;42.154;23.002;2023-02-16T15:39:00;98137.34;;;9.33;51.38
36630;BME280;36256;42.154;23.002;2023-02-16T15:41:34;98155.13;;;9.23;50.01
36630;BME280;36256;42.154;23.002;2023-02-16T15:44:03;98145.88;;;9.26;48.94
36630;BME280;36256;42.154;23.002;2023-02-16T15:46:38;98153.66;;;9.15;50.20